createdAt,value
2018-06-25T00:00:09.243Z,5.40
2018-06-25T00:02:38.304Z,5.37
2018-06-25T00:05:07.334Z,5.13
2018-06-25T00:07:36.396Z,5.57
2018-06-25T00:10:05.423Z,5.37
2018-06-25T00:12:34.523Z,5.87
2018-06-25T00:15:03.600Z,5.50
2018-06-25T00:17:32.672Z,6.77
2018-06-25T00:20:01.724Z,6.57
2018-06-25T00:22:30.796Z,6.70
2018-06-25T00:24:59.898Z,8.10
2018-06-25T00:27:28.971Z,6.73
2018-06-25T00:29:58.028Z,7.40
2018-06-25T00:32:26.848Z,7.70
2018-06-25T00:34:55.779Z,7.37
2018-06-25T00:37:24.856Z,7.90
2018-06-25T00:39:53.903Z,8.40
2018-06-25T00:42:22.719Z,7.67
2018-06-25T00:44:51.644Z,7.47
2018-06-25T00:47:20.716Z,8.37
2018-06-25T00:49:50.008Z,8.40
2018-06-25T00:52:19.088Z,7.10
2018-06-25T00:54:48.139Z,7.47
2018-06-25T00:57:17.219Z,9.73
2018-06-25T00:59:52.437Z,11.33
2018-06-25T01:02:21.860Z,11.17
2018-06-25T01:04:50.919Z,9.87
2018-06-25T01:07:20.299Z,10.03
2018-06-25T01:09:49.644Z,8.77
2018-06-25T01:12:18.763Z,10.23
2018-06-25T01:14:47.816Z,9.57
2018-06-25T01:17:16.876Z,9.50
2018-06-25T01:19:45.951Z,9.60
2018-06-25T01:22:15.096Z,14.63
2018-06-25T01:24:43.923Z,10.97
2018-06-25T01:27:12.860Z,11.47
2018-06-25T01:29:42.441Z,10.83
2018-06-25T01:32:11.578Z,11.20
2018-06-25T01:34:40.658Z,12.37
2018-06-25T01:37:09.511Z,11.17
2018-06-25T01:39:38.472Z,12.87
2018-06-25T01:42:07.291Z,12.97
2018-06-25T01:44:36.252Z,12.40
2018-06-25T01:47:05.324Z,12.27
2018-06-25T01:49:34.388Z,14.50
2018-06-25T01:52:03.436Z,14.37
2018-06-25T01:54:32.250Z,13.67
2018-06-25T01:57:01.172Z,14.87
2018-06-25T01:59:30.235Z,16.33
2018-06-25T02:01:59.274Z,14.20
2018-06-25T02:04:28.379Z,15.73
2018-06-25T02:06:57.437Z,15.40
2018-06-25T02:09:26.508Z,19.63
2018-06-25T02:11:55.584Z,14.77
2018-06-25T02:14:24.448Z,15.63
2018-06-25T02:16:53.383Z,15.20
2018-06-25T02:19:22.447Z,14.17
2018-06-25T02:21:51.507Z,16.10
2018-06-25T02:24:20.576Z,18.37
2018-06-25T02:26:49.636Z,17.40
2018-06-25T02:29:18.708Z,15.03
2018-06-25T02:31:47.767Z,16.30
2018-06-25T02:34:16.836Z,14.43
2018-06-25T02:36:45.667Z,17.87
2018-06-25T02:39:14.624Z,18.73
2018-06-25T02:41:43.429Z,15.33
2018-06-25T02:44:12.371Z,17.53
2018-06-25T02:46:41.434Z,16.93
2018-06-25T02:49:10.508Z,14.57
2018-06-25T02:51:39.309Z,17.53
2018-06-25T02:54:08.256Z,16.90
2018-06-25T02:56:37.311Z,14.47
2018-06-25T02:59:06.406Z,17.60
2018-06-25T03:01:35.565Z,17.13
2018-06-25T03:04:04.632Z,17.57
2018-06-25T03:06:33.752Z,17.70
2018-06-25T03:09:02.860Z,21.13
2018-06-25T03:11:31.689Z,16.47
2018-06-25T03:14:00.632Z,17.93
2018-06-25T03:16:29.680Z,18.57
2018-06-25T03:18:58.740Z,16.97
2018-06-25T03:21:27.548Z,20.67
2018-06-25T03:23:56.312Z,19.57
2018-06-25T03:26:25.240Z,17.67
2018-06-25T03:28:54.308Z,17.70
2018-06-25T03:31:23.355Z,19.27
2018-06-25T03:33:52.556Z,17.90
2018-06-25T03:36:21.681Z,17.13
2018-06-25T03:38:50.752Z,17.13
2018-06-25T03:41:19.808Z,16.27
2018-06-25T03:43:48.872Z,20.30
2018-06-25T03:46:17.916Z,17.30
2018-06-25T03:48:47.045Z,19.97
2018-06-25T03:51:16.088Z,18.50
2018-06-25T03:53:45.163Z,22.23
2018-06-25T03:56:13.964Z,20.97
2018-06-25T03:58:42.924Z,21.50
2018-06-25T04:01:11.977Z,18.83
2018-06-25T04:03:41.113Z,21.43
2018-06-25T04:06:10.160Z,19.33
2018-06-25T04:08:39.224Z,21.40
2018-06-25T04:11:08.309Z,22.20
2018-06-25T04:13:37.363Z,24.83
2018-06-25T04:16:06.468Z,23.63
2018-06-25T04:18:35.523Z,18.60
2018-06-25T04:21:04.491Z,19.37
2018-06-25T04:23:33.419Z,19.93
2018-06-25T04:26:02.488Z,18.43
2018-06-25T04:28:31.548Z,14.23
2018-06-25T04:31:00.633Z,20.17
2018-06-25T04:33:29.700Z,17.50
2018-06-25T04:35:58.768Z,15.83
2018-06-25T04:38:27.889Z,15.03
2018-06-25T04:40:56.924Z,19.67
2018-06-25T04:43:25.982Z,15.27
2018-06-25T04:45:54.831Z,14.30
2018-06-25T04:48:23.756Z,16.00
2018-06-25T04:50:52.576Z,12.97
2018-06-25T04:53:21.687Z,14.20
2018-06-25T04:55:50.649Z,12.07
2018-06-25T04:58:19.700Z,12.17
2018-06-25T05:00:48.802Z,14.83
2018-06-25T05:03:18.267Z,11.80
2018-06-25T05:05:47.332Z,11.63
2018-06-25T05:08:16.135Z,11.00
2018-06-25T05:10:45.183Z,14.93
2018-06-25T05:13:14.244Z,12.27
2018-06-25T05:15:43.340Z,12.03
2018-06-25T05:18:12.379Z,16.60
2018-06-25T05:20:41.440Z,13.00
2018-06-25T05:23:10.480Z,13.60
2018-06-25T05:25:39.549Z,12.40
2018-06-25T05:28:08.593Z,14.03
2018-06-25T05:30:37.677Z,12.03
2018-06-25T05:33:06.491Z,12.30
2018-06-25T05:35:35.205Z,11.50
2018-06-25T05:38:04.124Z,12.37
2018-06-25T05:40:33.192Z,10.00
2018-06-25T05:43:02.244Z,9.73
2018-06-25T05:45:31.055Z,13.20
2018-06-25T05:48:00.540Z,10.10
2018-06-25T05:50:29.507Z,8.90
2018-06-25T05:52:58.562Z,12.63
2018-06-25T05:55:27.976Z,9.67
2018-06-25T05:57:57.168Z,10.53
2018-06-25T06:00:26.227Z,11.67
2018-06-25T06:02:55.031Z,11.27
2018-06-25T06:05:23.984Z,13.32
2018-06-25T06:07:53.029Z,13.25
2018-06-25T06:10:22.107Z,14.50
2018-06-25T06:12:51.174Z,13.45
2018-06-25T06:15:20.248Z,13.95
2018-06-25T06:17:49.296Z,13.65
2018-06-25T06:20:18.114Z,13.20
2018-06-25T06:22:47.043Z,15.83
2018-06-25T06:25:16.120Z,8.40
2018-06-25T06:27:45.172Z,12.13
2018-06-25T06:30:14.240Z,10.20
2018-06-25T06:32:43.328Z,14.43
2018-06-25T06:35:12.400Z,12.57
2018-06-25T06:37:41.452Z,12.57
2018-06-25T06:40:10.320Z,11.73
2018-06-25T06:42:39.224Z,12.57
2018-06-25T06:45:08.088Z,12.67
2018-06-25T06:47:37.096Z,10.93
2018-06-25T06:50:06.280Z,15.07
2018-06-25T06:52:35.337Z,9.17
2018-06-25T06:55:04.504Z,12.53
2018-06-25T06:57:33.663Z,14.17
2018-06-25T07:00:02.617Z,13.90
2018-06-25T07:02:31.651Z,7.70
2018-06-25T07:05:00.704Z,11.77
2018-06-25T07:07:29.528Z,7.97
2018-06-25T07:09:58.456Z,6.73
2018-06-25T07:12:27.543Z,9.13
2018-06-25T07:14:56.592Z,9.00
2018-06-25T07:17:25.648Z,6.47
2018-06-25T07:19:54.693Z,7.17
2018-06-25T07:22:23.756Z,10.13
2018-06-25T07:24:52.583Z,11.10
2018-06-25T07:27:21.529Z,8.83
2018-06-25T07:29:50.573Z,9.37
2018-06-25T07:32:19.721Z,7.43
2018-06-25T07:34:48.510Z,7.20
2018-06-25T07:37:17.447Z,7.63
2018-06-25T07:39:46.495Z,5.03
2018-06-25T07:42:15.316Z,9.60
2018-06-25T07:44:44.500Z,3.97
2018-06-25T07:47:13.514Z,3.37
2018-06-25T07:49:42.544Z,3.97
2018-06-25T07:52:11.608Z,4.87
2018-06-25T07:54:40.648Z,6.17
2018-06-25T07:57:09.707Z,7.70
2018-06-25T07:59:38.751Z,3.57
2018-06-25T08:02:08.304Z,4.43
2018-06-25T08:04:37.359Z,4.27
2018-06-25T08:07:06.632Z,3.80
2018-06-25T08:09:35.672Z,3.00
2018-06-25T08:12:04.513Z,2.70
2018-06-25T08:14:33.432Z,4.90
2018-06-25T08:17:02.492Z,2.43
2018-06-25T08:19:31.539Z,3.23
2018-06-25T08:22:00.348Z,4.67
2018-06-25T08:24:29.275Z,2.50
2018-06-25T08:26:58.356Z,2.43
2018-06-25T08:29:27.495Z,2.83
2018-06-25T08:31:56.560Z,2.20
2018-06-25T08:34:25.785Z,3.67
2018-06-25T08:36:54.701Z,2.17
2018-06-25T08:39:23.491Z,2.17
2018-06-25T08:41:52.429Z,2.97
2018-06-25T08:44:21.464Z,2.07
2018-06-25T08:46:50.528Z,3.07
2018-06-25T08:49:19.567Z,2.07
2018-06-25T08:51:48.661Z,2.60
2018-06-25T08:54:17.496Z,4.13
2018-06-25T08:56:46.489Z,4.43
2018-06-25T08:59:15.505Z,3.63
2018-06-25T09:01:44.576Z,3.63
2018-06-25T09:04:13.620Z,2.27
2018-06-25T09:06:42.680Z,2.90
2018-06-25T09:09:13.088Z,5.67
2018-06-25T09:11:42.445Z,3.87
2018-06-25T09:14:11.493Z,4.47
2018-06-25T09:16:40.618Z,2.20
2018-06-25T09:19:09.735Z,2.67
2018-06-25T09:21:38.867Z,3.90
2018-06-25T09:24:07.919Z,2.70
2018-06-25T09:26:39.644Z,6.47
2018-06-25T09:29:09.339Z,3.77
2018-06-25T09:31:38.400Z,2.50
2018-06-25T09:34:11.673Z,5.27
2018-06-25T09:36:41.260Z,4.63
2018-06-25T09:39:12.080Z,3.43
2018-06-25T09:41:41.253Z,4.77
2018-06-25T09:44:10.985Z,4.03
2018-06-25T09:46:40.307Z,8.83
2018-06-25T09:49:09.352Z,4.20
2018-06-25T09:51:38.444Z,3.73
2018-06-25T09:54:07.519Z,2.90
2018-06-25T09:56:36.582Z,6.67
2018-06-25T09:59:05.752Z,3.27
2018-06-25T10:01:34.815Z,12.23
2018-06-25T10:04:03.865Z,3.90
2018-06-25T10:06:32.931Z,5.37
2018-06-25T10:09:01.783Z,4.43
2018-06-25T10:11:30.752Z,4.30
2018-06-25T10:13:59.875Z,3.73
2018-06-25T10:16:28.976Z,3.90
2018-06-25T10:18:58.092Z,4.43
2018-06-25T10:21:27.209Z,4.37
2018-06-25T10:23:56.292Z,4.57
2018-06-25T10:26:25.324Z,4.90
2018-06-25T10:28:54.380Z,4.93
2018-06-25T10:31:23.415Z,4.27
2018-06-25T10:33:52.467Z,4.40
2018-06-25T10:36:21.500Z,3.83
2018-06-25T10:38:50.560Z,3.70
2018-06-25T10:41:19.588Z,3.40
2018-06-25T10:43:48.644Z,3.87
2018-06-25T10:46:17.680Z,3.70
2018-06-25T10:48:46.728Z,3.03
2018-06-25T10:51:15.768Z,4.37
2018-06-25T10:53:44.823Z,4.13
2018-06-25T10:56:13.860Z,3.07
2018-06-25T10:58:42.921Z,2.70
2018-06-25T11:01:12.036Z,3.63
2018-06-25T11:03:41.183Z,3.40
2018-06-25T11:06:10.676Z,3.83
2018-06-25T11:08:40.704Z,3.70
2018-06-25T11:11:09.984Z,3.93
2018-06-25T11:13:39.048Z,4.87
2018-06-25T11:16:08.086Z,4.27
2018-06-25T11:18:37.143Z,3.77
2018-06-25T11:25:53.813Z,4.00
2018-06-25T11:28:23.633Z,4.30
2018-06-25T11:30:52.672Z,3.90
2018-06-25T11:33:22.144Z,3.87
2018-06-25T11:35:51.187Z,4.13
2018-06-25T11:38:20.248Z,4.10
2018-06-25T11:40:49.274Z,4.63
2018-06-25T11:43:18.319Z,3.83
2018-06-25T11:45:47.356Z,3.90
2018-06-25T11:48:16.412Z,4.60
2018-06-25T11:50:45.444Z,3.80
2018-06-25T11:53:14.492Z,5.07
2018-06-25T11:55:43.523Z,6.63
2018-06-25T11:58:12.581Z,4.97
2018-06-25T12:00:41.616Z,5.07
2018-06-25T12:03:10.727Z,5.17
2018-06-25T12:05:39.739Z,4.00
2018-06-25T12:08:08.558Z,4.57
2018-06-25T12:10:37.518Z,4.40
2018-06-25T12:13:06.576Z,4.83
2018-06-25T12:15:35.628Z,4.33
2018-06-25T12:18:04.716Z,4.07
2018-06-25T12:20:33.763Z,4.07
2018-06-25T12:23:02.852Z,4.30
2018-06-25T12:25:31.900Z,3.97
2018-06-25T12:28:00.966Z,6.03
2018-06-25T12:30:30.012Z,4.60
2018-06-25T12:32:59.080Z,4.43
2018-06-25T12:35:27.919Z,5.10
2018-06-25T12:37:56.896Z,4.90
2018-06-25T12:40:25.920Z,4.60
2018-06-25T12:42:54.990Z,4.23
2018-06-25T12:45:24.036Z,4.20
2018-06-25T12:47:53.100Z,4.57
2018-06-25T12:50:22.148Z,5.70
2018-06-25T12:52:51.227Z,4.00
2018-06-25T12:55:20.276Z,7.17
2018-06-25T12:57:49.343Z,4.73
2018-06-25T13:00:18.416Z,4.80
2018-06-25T13:02:47.463Z,5.00
2018-06-25T13:05:16.668Z,4.17
2018-06-25T13:07:45.715Z,3.83
2018-06-25T13:10:14.523Z,5.43
2018-06-25T13:12:43.206Z,4.07
2018-06-25T13:15:11.936Z,4.13
2018-06-25T13:17:40.849Z,4.03
2018-06-25T13:20:09.900Z,4.93
2018-06-25T13:22:38.939Z,4.70
2018-06-25T13:25:08.019Z,4.17
2018-06-25T13:27:37.135Z,4.40
2018-06-25T13:30:06.212Z,5.30
2018-06-25T13:32:35.311Z,4.73
2018-06-25T13:35:04.489Z,4.20
2018-06-25T13:37:33.524Z,4.27
2018-06-25T13:40:02.620Z,4.20
2018-06-25T13:42:31.660Z,4.50
2018-06-25T13:45:00.711Z,4.93
2018-06-25T13:47:29.747Z,6.17
2018-06-25T13:49:58.836Z,4.57
2018-06-25T13:52:27.879Z,4.30
2018-06-25T13:54:56.939Z,4.23
2018-06-25T13:57:25.988Z,5.00
2018-06-25T13:59:55.056Z,4.50
2018-06-25T14:02:24.136Z,3.97
2018-06-25T14:04:53.203Z,3.73
2018-06-25T14:07:22.254Z,4.50
2018-06-25T14:09:51.369Z,4.27
2018-06-25T14:12:20.404Z,4.53
2018-06-25T14:14:49.456Z,4.20
2018-06-25T14:17:18.491Z,4.30
2018-06-25T14:19:47.543Z,4.67
2018-06-25T14:22:16.641Z,4.03
2018-06-25T14:24:50.628Z,3.80
2018-06-25T14:27:19.760Z,5.70
2018-06-25T14:29:48.816Z,4.10
2018-06-25T14:32:23.363Z,3.90
2018-06-25T14:34:57.871Z,4.13
2018-06-25T14:37:26.909Z,3.90
2018-06-25T14:39:55.717Z,3.37
2018-06-25T14:42:24.624Z,3.33
2018-06-25T14:44:53.681Z,3.80
2018-06-25T14:47:22.715Z,3.35
2018-06-25T14:49:51.771Z,3.20
2018-06-25T14:52:20.817Z,3.93
2018-06-25T14:54:49.893Z,3.87
2018-06-25T14:57:19.020Z,3.00
2018-06-25T14:59:48.084Z,5.30
2018-06-25T15:02:17.124Z,3.50
2018-06-25T15:04:46.180Z,4.13
2018-06-25T15:07:15.215Z,3.90
2018-06-25T15:09:44.277Z,3.73
2018-06-25T15:12:13.408Z,4.07
2018-06-25T15:14:42.492Z,3.40
2018-06-25T15:17:11.520Z,3.87
2018-06-25T15:19:40.581Z,3.57
2018-06-25T15:22:09.611Z,3.83
2018-06-25T15:24:38.664Z,4.37
2018-06-25T15:27:07.691Z,6.30
2018-06-25T15:29:36.743Z,4.13
2018-06-25T15:32:05.792Z,4.20
2018-06-25T15:34:34.876Z,4.43
2018-06-25T15:37:03.922Z,4.53
2018-06-25T15:39:32.976Z,4.47
2018-06-25T15:42:02.020Z,4.17
2018-06-25T15:44:31.076Z,4.97
2018-06-25T15:47:00.108Z,9.90
2018-06-25T15:49:29.163Z,7.37
2018-06-25T15:51:58.199Z,7.33
2018-06-25T15:54:27.255Z,7.17
2018-06-25T15:56:56.293Z,7.80
2018-06-25T15:59:25.440Z,3.93
2018-06-25T16:01:54.487Z,3.57
2018-06-25T16:04:23.544Z,4.47
2018-06-25T16:06:52.641Z,4.33
2018-06-25T16:09:21.660Z,3.63
2018-06-25T16:11:50.719Z,4.17
2018-06-25T16:14:19.793Z,2.90
2018-06-25T16:16:48.924Z,2.83
2018-06-25T16:19:17.968Z,7.10
2018-06-25T16:21:47.033Z,3.20
2018-06-25T16:24:15.819Z,4.57
2018-06-25T16:26:44.755Z,4.63
2018-06-25T16:29:13.809Z,5.07
2018-06-25T16:31:42.647Z,5.03
2018-06-25T16:34:11.606Z,3.53
2018-06-25T16:36:40.827Z,3.70
2018-06-25T16:39:11.408Z,3.27
2018-06-25T16:41:40.620Z,3.13
2018-06-25T16:44:09.916Z,3.42
2018-06-25T16:46:39.272Z,3.95
2018-06-25T16:49:08.307Z,4.90
2018-06-25T16:51:37.368Z,4.40
2018-06-25T16:54:06.420Z,4.47
2018-06-25T16:56:35.484Z,5.57
2018-06-25T16:59:04.628Z,6.57
2018-06-25T17:01:34.352Z,9.20
2018-06-25T17:04:03.396Z,7.10
2018-06-25T17:06:32.459Z,6.85
2018-06-25T17:09:01.526Z,8.27
2018-06-25T17:11:30.612Z,6.25
2018-06-25T17:13:59.659Z,6.28
2018-06-25T17:16:28.750Z,10.18
2018-06-25T17:18:57.803Z,7.05
2018-06-25T17:21:26.863Z,6.00
2018-06-25T17:23:55.910Z,7.58
2018-06-25T17:26:25.123Z,7.40
2018-06-25T17:28:54.225Z,7.62
2018-06-25T17:31:23.260Z,7.97
2018-06-25T17:33:52.059Z,8.18
2018-06-25T17:36:21.052Z,11.90
2018-06-25T17:38:49.843Z,15.20
2018-06-25T17:41:18.823Z,9.63
2018-06-25T17:43:47.896Z,9.03
2018-06-25T17:46:16.968Z,9.47
2018-06-25T17:48:46.018Z,10.37
2018-06-25T17:51:14.834Z,7.10
2018-06-25T17:53:43.756Z,7.93
2018-06-25T17:56:12.820Z,6.13
2018-06-25T17:58:41.880Z,10.03
2018-06-25T18:01:10.944Z,8.07
2018-06-25T18:03:39.997Z,7.30
2018-06-25T18:06:09.065Z,6.00
2018-06-25T18:08:38.103Z,7.03
2018-06-25T18:11:07.167Z,9.63
2018-06-25T18:13:36.232Z,5.47
2018-06-25T18:16:05.596Z,6.07
2018-06-25T18:18:34.645Z,12.30
2018-06-25T18:21:03.729Z,11.00
2018-06-25T18:23:32.788Z,8.13
2018-06-25T18:26:01.892Z,13.53
2018-06-25T18:28:30.936Z,7.67
2018-06-25T18:30:59.999Z,14.13
2018-06-25T18:33:29.056Z,11.67
2018-06-25T18:35:58.140Z,10.03
2018-06-25T18:38:26.943Z,12.57
2018-06-25T18:40:55.676Z,4.90
2018-06-25T18:43:24.599Z,12.93
2018-06-25T18:45:53.661Z,10.87
2018-06-25T18:48:22.974Z,9.60
2018-06-25T18:50:52.027Z,9.73
2018-06-25T18:53:21.071Z,8.60
2018-06-25T18:55:50.153Z,13.40
2018-06-25T18:58:19.194Z,7.20
2018-06-25T19:00:48.255Z,6.80
2018-06-25T19:03:17.364Z,14.13
2018-06-25T19:05:46.520Z,24.27
2018-06-25T19:08:15.515Z,19.87
2018-06-25T19:10:44.607Z,16.37
2018-06-25T19:13:13.667Z,12.10
2018-06-25T19:15:42.455Z,12.27
2018-06-25T19:18:11.431Z,9.53
2018-06-25T19:20:40.469Z,6.07
2018-06-25T19:23:09.539Z,8.70
2018-06-25T19:25:38.359Z,10.07
2018-06-25T19:28:07.044Z,7.23
2018-06-25T19:30:35.747Z,10.73
2018-06-25T19:33:04.685Z,11.87
2018-06-25T19:35:33.531Z,7.80
2018-06-25T19:38:02.464Z,10.67
2018-06-25T19:40:31.556Z,12.27
2018-06-25T19:43:00.600Z,14.47
2018-06-25T19:45:29.647Z,14.03
2018-06-25T19:47:58.706Z,11.63
2018-06-25T19:50:27.746Z,7.70
2018-06-25T19:52:56.803Z,10.13
2018-06-25T19:55:25.844Z,15.10
2018-06-25T19:57:54.704Z,9.90
2018-06-25T20:00:23.613Z,8.50
2018-06-25T20:02:52.676Z,7.27
2018-06-25T20:05:21.712Z,11.00
2018-06-25T20:07:50.767Z,10.43
2018-06-25T20:10:19.833Z,13.27
2018-06-25T20:12:48.903Z,9.73
2018-06-25T20:15:17.766Z,10.10
2018-06-25T20:17:46.807Z,18.67
2018-06-25T20:20:15.852Z,10.77
2018-06-25T20:22:44.920Z,10.00
2018-06-25T20:25:13.971Z,18.87
2018-06-25T20:27:42.792Z,14.13
2018-06-25T20:30:11.503Z,13.27
2018-06-25T20:32:40.435Z,8.93
2018-06-25T20:35:09.788Z,13.63
2018-06-25T20:37:38.847Z,16.30
2018-06-25T20:40:07.643Z,15.70
2018-06-25T20:42:36.583Z,16.13
2018-06-25T20:45:05.643Z,15.00
2018-06-25T20:47:35.012Z,13.60
2018-06-25T20:50:04.459Z,17.30
2018-06-25T20:52:33.519Z,15.20
2018-06-25T20:55:02.564Z,11.90
2018-06-25T20:57:31.629Z,16.93
2018-06-25T21:00:00.524Z,12.83
2018-06-25T21:02:29.496Z,15.30
2018-06-25T21:04:58.540Z,14.30
2018-06-25T21:07:27.603Z,19.10
2018-06-25T21:09:56.397Z,17.07
2018-06-25T21:12:25.372Z,14.87
2018-06-25T21:14:54.416Z,14.63
2018-06-25T21:17:23.546Z,15.63
2018-06-25T21:19:52.592Z,15.73
2018-06-25T21:22:21.651Z,13.03
2018-06-25T21:24:50.720Z,14.30
2018-06-25T21:27:19.799Z,15.87
2018-06-25T21:29:48.836Z,15.97
2018-06-25T21:32:17.900Z,14.40
2018-06-25T21:34:46.980Z,15.03
2018-06-25T21:37:16.040Z,13.17
2018-06-25T21:39:45.763Z,12.70
2018-06-25T21:42:14.705Z,13.97
2018-06-25T21:44:43.744Z,14.53
2018-06-25T21:47:13.152Z,13.77
2018-06-25T21:49:42.072Z,13.27
2018-06-25T21:52:11.140Z,19.27
2018-06-25T21:54:40.191Z,14.20
2018-06-25T21:57:09.261Z,15.60
2018-06-25T21:59:38.312Z,18.43
2018-06-25T22:02:07.148Z,25.30
2018-06-25T22:04:36.064Z,18.10
2018-06-25T22:07:05.120Z,20.00
2018-06-25T22:09:34.221Z,21.27
2018-06-25T22:12:03.284Z,17.70
2018-06-25T22:14:32.344Z,17.97
2018-06-25T22:17:01.388Z,19.03
2018-06-25T22:19:30.451Z,17.20
2018-06-25T22:21:59.500Z,14.70
2018-06-25T22:24:28.580Z,18.17
2018-06-25T22:26:57.628Z,19.63
2018-06-25T22:29:26.687Z,16.13
2018-06-25T22:31:55.732Z,15.83
2018-06-25T22:34:24.792Z,20.23
2018-06-25T22:36:53.832Z,17.43
2018-06-25T22:39:22.899Z,22.03
2018-06-25T22:41:51.944Z,16.90
2018-06-25T22:44:20.751Z,20.87
2018-06-25T22:46:49.423Z,20.53
2018-06-25T22:49:18.363Z,18.87
2018-06-25T22:51:47.405Z,23.73
2018-06-25T22:54:16.218Z,19.23
2018-06-25T22:56:44.923Z,17.70
2018-06-25T22:59:13.872Z,15.67
2018-06-25T23:01:42.913Z,22.63
2018-06-25T23:04:11.964Z,14.77
2018-06-25T23:06:40.761Z,23.13
2018-06-25T23:09:10.175Z,16.13
2018-06-25T23:11:38.890Z,23.10
2018-06-25T23:14:07.824Z,14.60
2018-06-25T23:16:36.907Z,14.43
2018-06-25T23:19:05.967Z,15.63
2018-06-25T23:21:35.008Z,17.80
2018-06-25T23:24:04.076Z,10.73
2018-06-25T23:26:33.120Z,14.37
2018-06-25T23:29:01.930Z,16.17
2018-06-25T23:31:30.639Z,16.10
2018-06-25T23:33:59.569Z,13.20
2018-06-25T23:36:28.616Z,12.40
2018-06-25T23:38:57.676Z,14.27
2018-06-25T23:41:26.468Z,9.57
2018-06-25T23:43:55.404Z,13.60
2018-06-25T23:46:24.453Z,14.43
2018-06-25T23:48:53.519Z,15.03
2018-06-25T23:51:22.619Z,14.17
2018-06-25T23:53:51.681Z,12.77
2018-06-25T23:56:20.720Z,13.83
2018-06-25T23:58:49.784Z,16.57
